createdAt,value
2018-03-01T00:00:47.743Z,0.00
2018-03-01T00:01:53.087Z,0.00
2018-03-01T00:02:58.925Z,0.00
2018-03-01T00:04:04.758Z,0.00
2018-03-01T00:05:10.583Z,0.00
2018-03-01T00:06:16.419Z,0.00
2018-03-01T00:07:22.270Z,0.00
2018-03-01T00:08:28.117Z,0.00
2018-03-01T00:09:34.430Z,0.00
2018-03-01T00:10:40.270Z,0.00
2018-03-01T00:11:45.636Z,0.00
2018-03-01T00:12:51.450Z,0.00
2018-03-01T00:13:57.784Z,0.00
2018-03-01T00:15:03.614Z,0.00
2018-03-01T00:16:08.978Z,0.00
2018-03-01T00:17:14.843Z,0.00
2018-03-01T00:18:21.152Z,0.00
2018-03-01T00:19:26.513Z,0.00
2018-03-01T00:20:32.339Z,0.00
2018-03-01T00:21:38.197Z,0.00
2018-03-01T00:22:44.023Z,0.00
2018-03-01T00:23:49.937Z,0.00
2018-03-01T00:24:55.675Z,0.00
2018-03-01T00:26:01.520Z,0.00
2018-03-01T00:27:07.967Z,0.00
2018-03-01T00:28:13.687Z,0.00
2018-03-01T00:29:19.536Z,0.00
2018-03-01T00:30:24.890Z,0.00
2018-03-01T00:31:30.720Z,0.00
2018-03-01T00:32:36.625Z,0.00
2018-03-01T00:33:42.415Z,0.00
2018-03-01T00:34:48.242Z,0.00
2018-03-01T00:35:54.076Z,0.00
2018-03-01T00:36:59.938Z,0.00
2018-03-01T00:38:05.754Z,0.00
2018-03-01T00:39:12.112Z,0.00
2018-03-01T00:40:17.926Z,0.00
2018-03-01T00:41:23.778Z,0.00
2018-03-01T00:42:29.152Z,0.00
2018-03-01T00:43:35.465Z,0.00
2018-03-01T00:44:40.798Z,0.00
2018-03-01T00:45:46.635Z,0.00
2018-03-01T00:46:54.024Z,0.00
2018-03-01T00:47:58.805Z,0.00
2018-03-01T00:49:04.151Z,0.00
2018-03-01T00:50:09.985Z,0.00
2018-03-01T00:51:16.308Z,0.00
2018-03-01T00:52:22.183Z,0.00
2018-03-01T00:53:27.989Z,0.00
2018-03-01T00:54:33.822Z,0.00
2018-03-01T00:55:39.670Z,0.00
2018-03-01T00:56:45.514Z,0.00
2018-03-01T00:57:50.855Z,0.00
2018-03-01T00:58:56.681Z,0.00
2018-03-01T01:00:03.004Z,0.00
2018-03-01T01:01:08.356Z,0.00
2018-03-01T01:02:14.199Z,0.00
2018-03-01T01:03:20.007Z,0.00
2018-03-01T01:04:26.345Z,0.00
2018-03-01T01:05:32.172Z,0.00
2018-03-01T01:06:38.008Z,0.00
2018-03-01T01:07:43.955Z,0.00
2018-03-01T01:08:49.192Z,0.00
2018-03-01T01:09:55.523Z,0.00
2018-03-01T01:11:00.866Z,0.00
2018-03-01T01:12:07.273Z,0.00
2018-03-01T01:13:12.545Z,0.00
2018-03-01T01:14:18.387Z,0.00
2018-03-01T01:15:24.220Z,0.00
2018-03-01T01:16:30.060Z,0.00
2018-03-01T01:17:36.417Z,0.00
2018-03-01T01:18:41.742Z,0.00
2018-03-01T01:19:47.565Z,0.00
2018-03-01T01:20:53.415Z,0.00
2018-03-01T01:21:59.283Z,0.00
2018-03-01T01:23:05.097Z,0.00
2018-03-01T01:24:10.949Z,0.00
2018-03-01T01:25:16.788Z,0.00
2018-03-01T01:26:23.114Z,0.00
2018-03-01T01:27:28.508Z,0.00
2018-03-01T01:28:34.322Z,0.00
2018-03-01T01:29:40.646Z,0.00
2018-03-01T01:30:46.007Z,0.00
2018-03-01T01:31:52.365Z,0.00
2018-03-01T01:32:58.234Z,0.00
2018-03-01T01:34:03.541Z,0.00
2018-03-01T01:35:09.419Z,0.00
2018-03-01T01:36:15.740Z,0.00
2018-03-01T01:37:21.146Z,0.00
2018-03-01T01:38:26.922Z,0.00
2018-03-01T01:39:33.272Z,0.00
2018-03-01T01:40:39.158Z,0.00
2018-03-01T01:41:44.529Z,0.00
2018-03-01T01:42:50.839Z,0.00
2018-03-01T01:43:56.212Z,0.00
2018-03-01T01:45:02.546Z,0.00
2018-03-01T01:46:08.395Z,0.00
2018-03-01T01:47:13.759Z,0.00
2018-03-01T01:48:19.613Z,0.00
2018-03-01T01:49:25.420Z,0.00
2018-03-01T01:50:31.273Z,0.00
2018-03-01T01:51:37.128Z,0.00
2018-03-01T01:52:43.513Z,0.00
2018-03-01T01:53:49.353Z,0.00
2018-03-01T01:54:54.676Z,0.00
2018-03-01T01:56:00.521Z,0.00
2018-03-01T01:57:06.365Z,0.00
2018-03-01T01:58:12.692Z,0.00
2018-03-01T01:59:18.015Z,0.00
2018-03-01T02:00:23.901Z,0.00
2018-03-01T02:01:29.707Z,0.00
2018-03-01T02:02:35.625Z,0.00
2018-03-01T02:03:41.422Z,0.00
2018-03-01T02:04:47.748Z,0.00
2018-03-01T02:05:53.083Z,0.00
2018-03-01T02:06:59.448Z,0.00
2018-03-01T02:08:05.321Z,0.00
2018-03-01T02:09:10.612Z,0.00
2018-03-01T02:10:16.440Z,0.00
2018-03-01T02:11:22.834Z,0.00
2018-03-01T02:12:28.686Z,0.00
2018-03-01T02:13:33.926Z,0.00
2018-03-01T02:14:39.815Z,0.00
2018-03-01T02:15:46.128Z,0.00
2018-03-01T02:16:51.961Z,0.00
2018-03-01T02:17:57.337Z,0.00
2018-03-01T02:19:03.637Z,0.00
2018-03-01T02:20:09.463Z,0.00
2018-03-01T02:21:15.346Z,0.00
2018-03-01T02:22:20.683Z,0.00
2018-03-01T02:23:26.485Z,0.00
2018-03-01T02:24:32.320Z,0.00
2018-03-01T02:25:38.171Z,0.00
2018-03-01T02:26:44.007Z,0.00
2018-03-01T02:27:49.970Z,0.00
2018-03-01T02:28:55.676Z,0.00
2018-03-01T02:30:01.523Z,0.00
2018-03-01T02:31:07.396Z,0.00
2018-03-01T02:32:13.753Z,0.00
2018-03-01T02:33:19.054Z,0.00
2018-03-01T02:34:24.969Z,0.00
2018-03-01T02:35:30.740Z,0.00
2018-03-01T02:36:37.132Z,0.00
2018-03-01T02:37:42.476Z,0.00
2018-03-01T02:38:48.292Z,0.00
2018-03-01T02:39:54.635Z,0.00
2018-03-01T02:40:59.981Z,0.00
2018-03-01T02:42:05.784Z,0.00
2018-03-01T02:43:11.680Z,0.00
2018-03-01T02:44:17.966Z,0.00
2018-03-01T02:45:23.311Z,0.00
2018-03-01T02:46:29.164Z,0.00
2018-03-01T02:47:35.045Z,0.00
2018-03-01T02:48:40.888Z,0.00
2018-03-01T02:49:46.701Z,0.00
2018-03-01T02:50:52.574Z,0.00
2018-03-01T02:51:58.394Z,0.00
2018-03-01T02:53:04.818Z,0.00
2018-03-01T02:54:10.657Z,0.00
2018-03-01T02:55:15.933Z,0.00
2018-03-01T02:56:21.790Z,0.00
2018-03-01T02:57:28.193Z,0.00
2018-03-01T02:58:33.963Z,0.00
2018-03-01T02:59:39.321Z,0.00
2018-03-01T03:00:45.695Z,0.00
2018-03-01T03:01:51.015Z,0.00
2018-03-01T03:02:57.372Z,0.00
2018-03-01T03:04:03.259Z,0.00
2018-03-01T03:05:08.551Z,0.00
2018-03-01T03:06:14.888Z,0.00
2018-03-01T03:07:20.319Z,0.00
2018-03-01T03:08:26.587Z,0.00
2018-03-01T03:09:32.456Z,0.00
2018-03-01T03:10:38.320Z,0.00
2018-03-01T03:11:43.634Z,0.00
2018-03-01T03:12:50.011Z,0.00
2018-03-01T03:13:55.848Z,0.00
2018-03-01T03:15:01.693Z,0.00
2018-03-01T03:16:07.040Z,0.00
2018-03-01T03:17:13.381Z,0.00
2018-03-01T03:18:19.219Z,0.00
2018-03-01T03:19:25.061Z,0.00
2018-03-01T03:20:30.917Z,0.00
2018-03-01T03:21:36.280Z,0.00
2018-03-01T03:22:42.637Z,0.00
2018-03-01T03:23:47.941Z,0.00
2018-03-01T03:24:54.295Z,0.00
2018-03-01T03:25:59.627Z,0.00
2018-03-01T03:27:05.540Z,0.00
2018-03-01T03:28:11.975Z,0.00
2018-03-01T03:29:17.198Z,0.00
2018-03-01T03:30:23.511Z,0.00
2018-03-01T03:31:29.407Z,0.00
2018-03-01T03:32:35.260Z,0.00
2018-03-01T03:33:41.099Z,0.00
2018-03-01T03:34:46.418Z,0.00
2018-03-01T03:35:52.767Z,0.00
2018-03-01T03:36:58.128Z,0.00
2018-03-01T03:38:03.995Z,0.00
2018-03-01T03:39:10.324Z,0.00
2018-03-01T03:40:15.685Z,0.00
2018-03-01T03:41:21.524Z,0.00
2018-03-01T03:42:27.935Z,0.00
2018-03-01T03:43:33.273Z,0.00
2018-03-01T03:44:39.558Z,0.00
2018-03-01T03:45:44.921Z,0.00
2018-03-01T03:46:50.767Z,0.00
2018-03-01T03:47:56.644Z,0.00
2018-03-01T03:49:02.489Z,0.00
2018-03-01T03:50:08.330Z,0.00
2018-03-01T03:51:14.196Z,0.00
2018-03-01T03:52:20.025Z,0.00
2018-03-01T03:53:25.957Z,0.00
2018-03-01T03:54:31.710Z,0.00
2018-03-01T03:55:38.057Z,0.00
2018-03-01T03:56:43.421Z,0.00
2018-03-01T03:57:49.269Z,0.00
2018-03-01T03:58:55.624Z,0.00
2018-03-01T04:00:01.445Z,0.00
2018-03-01T04:01:06.788Z,0.00
2018-03-01T04:02:13.131Z,0.00
2018-03-01T04:03:19.008Z,0.00
2018-03-01T04:04:24.846Z,0.00
2018-03-01T04:05:30.183Z,0.00
2018-03-01T04:06:36.532Z,0.00
2018-03-01T04:07:41.881Z,0.00
2018-03-01T04:08:48.240Z,0.00
2018-03-01T04:09:53.617Z,0.00
2018-03-01T04:10:59.917Z,0.00
2018-03-01T04:12:05.273Z,0.00
2018-03-01T04:13:11.692Z,0.00
2018-03-01T04:14:16.967Z,0.00
2018-03-01T04:15:22.814Z,0.00
2018-03-01T04:16:28.669Z,0.00
2018-03-01T04:17:34.522Z,0.00
2018-03-01T04:18:40.886Z,0.00
2018-03-01T04:19:46.703Z,0.00
2018-03-01T04:20:52.536Z,0.00
2018-03-01T04:21:58.396Z,0.00
2018-03-01T04:23:03.741Z,0.00
2018-03-01T04:24:10.101Z,0.00
2018-03-01T04:25:15.923Z,0.00
2018-03-01T04:26:21.271Z,0.00
2018-03-01T04:27:27.101Z,0.00
2018-03-01T04:28:32.972Z,0.00
2018-03-01T04:29:38.786Z,0.00
2018-03-01T04:30:45.123Z,0.00
2018-03-01T04:31:50.467Z,0.00
2018-03-01T04:32:56.490Z,0.00
2018-03-01T04:34:02.665Z,0.00
2018-03-01T04:35:07.972Z,0.00
2018-03-01T04:36:13.814Z,0.00
2018-03-01T04:37:20.139Z,0.00
2018-03-01T04:38:25.998Z,0.00
2018-03-01T04:39:31.330Z,0.00
2018-03-01T04:40:37.162Z,0.00
2018-03-01T04:41:43.489Z,0.00
2018-03-01T04:42:48.823Z,0.00
2018-03-01T04:43:55.188Z,0.00
2018-03-01T04:45:00.974Z,0.00
2018-03-01T04:46:06.332Z,0.00
2018-03-01T04:47:12.150Z,0.00
2018-03-01T04:48:18.498Z,0.00
2018-03-01T04:49:23.811Z,0.00
2018-03-01T04:50:30.138Z,0.00
2018-03-01T04:51:35.973Z,0.00
2018-03-01T04:52:41.299Z,0.00
2018-03-01T04:53:47.653Z,0.00
2018-03-01T04:54:52.960Z,0.00
2018-03-01T04:55:59.294Z,0.00
2018-03-01T04:57:04.638Z,0.00
2018-03-01T04:58:10.456Z,0.00
2018-03-01T04:59:16.305Z,0.00
2018-03-01T05:00:22.115Z,0.00
2018-03-01T05:01:27.932Z,0.00
2018-03-01T05:02:34.262Z,0.00
2018-03-01T05:03:40.115Z,0.00
2018-03-01T05:04:45.420Z,0.00
2018-03-01T05:05:51.250Z,0.00
2018-03-01T05:06:57.579Z,0.00
2018-03-01T05:08:02.907Z,0.00
2018-03-01T05:09:09.239Z,0.00
2018-03-01T05:10:15.067Z,0.00
2018-03-01T05:11:20.394Z,0.00
2018-03-01T05:12:26.221Z,0.00
2018-03-01T05:13:32.062Z,0.00
2018-03-01T05:14:37.947Z,0.00
2018-03-01T05:15:44.186Z,0.00
2018-03-01T05:16:50.006Z,0.00
2018-03-01T05:17:55.922Z,0.00
2018-03-01T05:19:01.189Z,0.00
2018-03-01T05:20:07.000Z,0.00
2018-03-01T05:21:13.322Z,0.00
2018-03-01T05:22:19.156Z,0.00
2018-03-01T05:23:24.998Z,0.00
2018-03-01T05:24:30.806Z,0.00
2018-03-01T05:25:36.176Z,0.00
2018-03-01T05:26:42.466Z,0.00
2018-03-01T05:27:48.310Z,0.00
2018-03-01T05:28:53.673Z,0.00
2018-03-01T05:29:59.486Z,0.00
2018-03-01T05:31:05.817Z,0.00
2018-03-01T05:32:11.144Z,0.00
2018-03-01T05:33:17.495Z,0.00
2018-03-01T05:34:22.848Z,0.00
2018-03-01T05:35:29.153Z,0.00
2018-03-01T05:36:34.501Z,0.00
2018-03-01T05:37:40.840Z,0.00
2018-03-01T05:38:46.688Z,0.00
2018-03-01T05:39:52.015Z,0.00
2018-03-01T05:40:58.340Z,0.00
2018-03-01T05:42:03.683Z,0.00
2018-03-01T05:43:09.537Z,0.00
2018-03-01T05:44:15.959Z,0.00
2018-03-01T05:45:21.205Z,0.00
2018-03-01T05:46:27.550Z,0.00
2018-03-01T05:47:32.920Z,0.00
2018-03-01T05:48:39.257Z,0.00
2018-03-01T05:49:44.562Z,0.00
2018-03-01T05:50:50.381Z,0.00
2018-03-01T05:51:56.220Z,0.00
2018-03-01T05:53:02.553Z,0.00
2018-03-01T05:54:07.938Z,0.00
2018-03-01T05:55:13.748Z,0.00
2018-03-01T05:56:20.090Z,0.00
2018-03-01T05:57:25.433Z,0.00
2018-03-01T05:58:31.264Z,0.00
2018-03-01T05:59:37.623Z,0.00
2018-03-01T06:00:42.952Z,0.00
2018-03-01T06:01:48.791Z,0.00
2018-03-01T06:02:54.627Z,0.00
2018-03-01T06:04:00.499Z,0.00
2018-03-01T06:05:07.808Z,0.00
2018-03-01T06:06:12.659Z,5.63
2018-03-01T06:07:18.504Z,5.63
2018-03-01T06:08:23.954Z,5.63
2018-03-01T06:09:30.248Z,5.63
2018-03-01T06:10:35.534Z,5.63
2018-03-01T06:11:41.382Z,5.63
2018-03-01T06:12:47.725Z,5.63
2018-03-01T06:13:53.576Z,5.63
2018-03-01T06:14:58.949Z,11.25
2018-03-01T06:16:05.300Z,11.25
2018-03-01T06:17:10.630Z,11.25
2018-03-01T06:18:16.957Z,11.25
2018-03-01T06:19:22.321Z,16.88
2018-03-01T06:20:28.680Z,16.88
2018-03-01T06:21:34.503Z,16.88
2018-03-01T06:22:39.949Z,16.88
2018-03-01T06:23:45.722Z,22.50
2018-03-01T06:24:51.585Z,22.50
2018-03-01T06:25:57.418Z,22.50
2018-03-01T06:27:03.283Z,22.50
2018-03-01T06:28:09.142Z,28.13
2018-03-01T06:29:14.972Z,28.13
2018-03-01T06:30:21.350Z,28.13
2018-03-01T06:31:26.678Z,33.75
2018-03-01T06:32:32.598Z,33.75
2018-03-01T06:33:38.888Z,33.75
2018-03-01T06:34:44.248Z,33.75
2018-03-01T06:35:50.125Z,33.75
2018-03-01T06:36:56.461Z,33.75
2018-03-01T06:38:02.330Z,39.38
2018-03-01T06:39:08.173Z,39.38
2018-03-01T06:40:14.076Z,45.00
2018-03-01T06:41:19.932Z,45.00
2018-03-01T06:42:25.260Z,50.63
2018-03-01T06:43:31.163Z,50.63
2018-03-01T06:44:36.988Z,50.63
2018-03-01T06:45:42.888Z,56.25
2018-03-01T06:46:49.229Z,56.25
2018-03-01T06:47:55.084Z,56.25
2018-03-01T06:49:00.967Z,56.25
2018-03-01T06:50:06.334Z,61.88
2018-03-01T06:51:12.246Z,67.50
2018-03-01T06:52:18.062Z,73.13
2018-03-01T06:53:24.620Z,73.13
2018-03-01T06:54:30.303Z,73.13
2018-03-01T06:55:36.206Z,73.13
2018-03-01T06:56:42.049Z,78.75
2018-03-01T06:57:47.439Z,78.75
2018-03-01T06:58:53.297Z,84.38
2018-03-01T06:59:59.655Z,84.38
2018-03-01T07:01:05.561Z,90.00
2018-03-01T07:02:11.405Z,95.63
2018-03-01T07:03:16.798Z,112.50
2018-03-01T07:04:23.160Z,129.38
2018-03-01T07:05:28.538Z,140.63
2018-03-01T07:06:34.971Z,157.50
2018-03-01T07:07:40.302Z,168.75
2018-03-01T07:08:46.697Z,174.38
2018-03-01T07:09:52.585Z,174.38
2018-03-01T07:10:58.007Z,163.13
2018-03-01T07:12:03.943Z,151.88
2018-03-01T07:13:09.784Z,140.63
2018-03-01T07:14:15.659Z,135.00
2018-03-01T07:15:22.060Z,123.75
2018-03-01T07:16:27.986Z,112.50
2018-03-01T07:17:33.363Z,106.88
2018-03-01T07:18:39.263Z,101.25
2018-03-01T07:19:45.653Z,101.25
2018-03-01T07:20:51.053Z,101.25
2018-03-01T07:21:56.977Z,106.88
2018-03-01T07:23:03.323Z,112.50
2018-03-01T07:24:08.733Z,123.75
2018-03-01T07:25:15.129Z,140.63
2018-03-01T07:26:20.558Z,151.88
2018-03-01T07:27:26.910Z,168.75
2018-03-01T07:28:32.314Z,185.63
2018-03-01T07:29:38.699Z,191.25
2018-03-01T07:30:44.609Z,196.88
2018-03-01T07:31:50.044Z,191.25
2018-03-01T07:32:56.437Z,180.00
2018-03-01T07:34:02.316Z,168.75
2018-03-01T07:35:08.224Z,163.13
2018-03-01T07:36:13.634Z,157.50
2018-03-01T07:37:19.566Z,157.50
2018-03-01T07:38:25.940Z,163.13
2018-03-01T07:39:31.363Z,163.13
2018-03-01T07:40:37.253Z,174.38
2018-03-01T07:41:43.194Z,185.63
2018-03-01T07:42:49.600Z,196.88
2018-03-01T07:43:55.486Z,208.13
2018-03-01T07:45:00.890Z,213.75
2018-03-01T07:46:07.308Z,219.38
2018-03-01T07:47:13.225Z,225.00
2018-03-01T07:48:18.647Z,236.25
2018-03-01T07:49:25.054Z,241.88
2018-03-01T07:50:30.454Z,241.88
2018-03-01T07:51:36.888Z,241.88
2018-03-01T07:52:42.847Z,236.25
2018-03-01T07:53:48.717Z,230.63
2018-03-01T07:54:54.135Z,219.38
2018-03-01T07:56:00.553Z,213.75
2018-03-01T07:57:05.967Z,213.75
2018-03-01T07:58:11.971Z,208.13
2018-03-01T08:00:23.734Z,208.13
2018-03-01T08:01:30.132Z,213.75
2018-03-01T08:02:35.559Z,213.75
2018-03-01T08:03:41.497Z,208.13
2018-03-01T08:04:47.412Z,202.50
2018-03-01T08:05:53.300Z,196.88
2018-03-01T08:06:59.718Z,191.25
2018-03-01T08:08:05.154Z,196.88
2018-03-01T08:09:11.090Z,191.25
2018-03-01T08:10:16.974Z,191.25
2018-03-01T08:11:22.886Z,196.88
2018-03-01T08:12:28.800Z,196.88
2018-03-01T08:13:34.732Z,196.88
2018-03-01T08:14:40.635Z,196.88
2018-03-01T08:15:46.542Z,202.50
2018-03-01T08:16:52.952Z,208.13
2018-03-01T08:17:58.384Z,213.75
2018-03-01T08:19:04.310Z,219.38
2018-03-01T08:20:10.203Z,219.38
2018-03-01T08:21:16.125Z,219.38
2018-03-01T08:22:22.551Z,236.25
2018-03-01T08:23:27.972Z,236.25
2018-03-01T08:24:34.401Z,241.88
2018-03-01T08:25:40.329Z,241.88
2018-03-01T08:26:46.235Z,241.88
2018-03-01T08:27:51.657Z,236.25
2018-03-01T08:28:57.622Z,236.25
2018-03-01T08:30:03.518Z,241.88
2018-03-01T08:31:09.447Z,241.88
2018-03-01T08:32:15.382Z,247.50
2018-03-01T08:33:21.300Z,247.50
2018-03-01T08:34:27.253Z,241.88
2018-03-01T08:35:33.655Z,236.25
2018-03-01T08:36:39.599Z,236.25
2018-03-01T08:37:45.031Z,230.63
2018-03-01T08:38:51.462Z,225.00
2018-03-01T08:39:57.419Z,219.38
2018-03-01T08:41:02.849Z,219.38
2018-03-01T08:42:08.813Z,213.75
2018-03-01T08:43:15.228Z,213.75
2018-03-01T08:44:21.198Z,213.75
2018-03-01T08:45:28.105Z,213.75
2018-03-01T08:46:32.562Z,213.75
2018-03-01T08:47:39.010Z,213.75
2018-03-01T08:48:45.018Z,213.75
2018-03-01T08:49:50.435Z,208.13
2018-03-01T08:50:56.361Z,208.13
2018-03-01T08:52:02.317Z,202.50
2018-03-01T08:53:08.282Z,196.88
2018-03-01T08:54:14.233Z,196.88
2018-03-01T08:55:20.706Z,196.88
2018-03-01T08:56:26.644Z,191.25
2018-03-01T08:57:32.112Z,185.63
2018-03-01T08:58:38.074Z,185.63
2018-03-01T08:59:44.550Z,185.63
2018-03-01T09:00:49.993Z,185.63
2018-03-01T09:01:56.447Z,191.25
2018-03-01T09:03:02.405Z,196.88
2018-03-01T09:04:07.880Z,202.50
2018-03-01T09:05:13.964Z,213.75
2018-03-01T09:06:19.802Z,225.00
2018-03-01T09:07:25.757Z,236.25
2018-03-01T09:08:31.719Z,253.13
2018-03-01T09:09:37.692Z,264.38
2018-03-01T09:10:43.684Z,286.88
2018-03-01T09:11:49.635Z,298.13
2018-03-01T09:12:56.102Z,315.00
2018-03-01T09:14:01.570Z,331.88
2018-03-01T09:15:07.570Z,348.75
2018-03-01T09:16:14.037Z,354.38
2018-03-01T09:17:19.507Z,354.38
2018-03-01T09:18:25.989Z,354.38
2018-03-01T09:19:31.491Z,354.38
2018-03-01T09:20:38.006Z,354.38
2018-03-01T09:21:43.972Z,354.38
2018-03-01T09:22:49.482Z,354.38
2018-03-01T09:23:55.482Z,348.75
2018-03-01T09:25:02.011Z,343.13
2018-03-01T09:26:07.484Z,331.88
2018-03-01T09:27:13.973Z,320.63
2018-03-01T09:28:19.986Z,309.38
2018-03-01T09:29:25.504Z,303.75
2018-03-01T09:30:32.048Z,286.88
2018-03-01T09:31:38.024Z,275.63
2018-03-01T09:32:43.511Z,264.38
2018-03-01T09:33:49.509Z,253.13
2018-03-01T09:34:55.554Z,241.88
2018-03-01T09:36:02.035Z,236.25
2018-03-01T09:37:08.095Z,225.00
2018-03-01T09:38:13.541Z,213.75
2018-03-01T09:39:19.563Z,208.13
2018-03-01T09:40:25.571Z,196.88
2018-03-01T09:41:31.552Z,191.25
2018-03-01T09:42:37.557Z,185.63
2018-03-01T09:43:44.069Z,180.00
2018-03-01T09:44:50.077Z,174.38
2018-03-01T09:45:55.561Z,174.38
2018-03-01T09:47:01.553Z,174.38
2018-03-01T09:48:08.036Z,174.38
2018-03-01T09:49:13.547Z,174.38
2018-03-01T09:50:20.061Z,174.38
2018-03-01T09:51:25.550Z,174.38
2018-03-01T09:52:32.026Z,174.38
2018-03-01T09:53:37.542Z,174.38
2018-03-01T09:54:44.034Z,174.38
2018-03-01T09:55:49.553Z,174.38
2018-03-01T09:56:56.016Z,168.75
2018-03-01T09:58:01.572Z,174.38
2018-03-01T09:59:07.540Z,174.38
2018-03-01T10:00:13.550Z,174.38
2018-03-01T10:01:19.525Z,174.38
2018-03-01T10:02:26.012Z,174.38
2018-03-01T10:03:31.526Z,174.38
2018-03-01T10:04:37.522Z,174.38
2018-03-01T10:05:43.560Z,174.38
2018-03-01T10:06:49.521Z,174.38
2018-03-01T10:07:56.039Z,174.38
2018-03-01T10:09:02.041Z,174.38
2018-03-01T10:10:08.068Z,174.38
2018-03-01T10:11:14.036Z,180.00
2018-03-01T10:12:20.045Z,180.00
2018-03-01T10:13:25.551Z,180.00
2018-03-01T10:14:31.607Z,180.00
2018-03-01T10:15:37.619Z,180.00
2018-03-01T10:16:44.055Z,180.00
2018-03-01T10:17:49.582Z,180.00
2018-03-01T10:18:56.075Z,185.63
2018-03-01T10:20:02.127Z,185.63
2018-03-01T10:21:08.095Z,185.63
2018-03-01T10:22:13.615Z,185.63
2018-03-01T10:23:19.623Z,185.63
2018-03-01T10:24:26.119Z,191.25
2018-03-01T10:25:31.659Z,196.88
2018-03-01T10:26:38.151Z,196.88
2018-03-01T10:27:43.662Z,202.50
2018-03-01T10:28:49.687Z,202.50
2018-03-01T10:29:56.225Z,208.13
2018-03-01T10:31:01.705Z,208.13
2018-03-01T10:32:08.224Z,213.75
2018-03-01T10:33:13.775Z,213.75
2018-03-01T10:34:19.746Z,208.13
2018-03-01T10:35:25.789Z,208.13
2018-03-01T10:36:31.787Z,208.13
2018-03-01T10:37:38.000Z,213.75
2018-03-01T10:38:44.319Z,219.38
2018-03-01T10:39:49.933Z,219.38
2018-03-01T10:40:55.893Z,225.00
2018-03-01T10:42:02.390Z,219.38
2018-03-01T10:43:07.916Z,225.00
2018-03-01T10:44:13.962Z,230.63
2018-03-01T10:45:21.007Z,230.63
2018-03-01T10:46:26.009Z,230.63
2018-03-01T10:47:33.555Z,219.38
2018-03-01T10:48:38.066Z,225.00
2018-03-01T10:49:44.605Z,225.00
2018-03-01T10:50:50.151Z,219.38
2018-03-01T10:51:56.158Z,225.00
2018-03-01T10:53:02.678Z,225.00
2018-03-01T10:54:08.231Z,225.00
2018-03-01T10:55:14.266Z,219.38
2018-03-01T10:56:20.295Z,219.38
2018-03-01T10:57:26.809Z,219.38
2018-03-01T10:58:32.850Z,225.00
2018-03-01T10:59:38.908Z,225.00
2018-03-01T11:00:44.437Z,225.00
2018-03-01T11:01:50.459Z,225.00
2018-03-01T11:02:56.497Z,225.00
2018-03-01T11:04:02.533Z,225.00
2018-03-01T11:05:08.672Z,219.38
2018-03-01T11:06:14.623Z,219.38
2018-03-01T11:07:20.652Z,219.38
2018-03-01T11:08:27.193Z,219.38
2018-03-01T11:09:33.239Z,225.00
2018-03-01T11:10:38.812Z,225.00
2018-03-01T11:11:44.824Z,225.00
2018-03-01T11:12:50.870Z,225.00
2018-03-01T11:13:57.405Z,225.00
2018-03-01T11:15:02.966Z,219.38
2018-03-01T11:16:09.526Z,219.38
2018-03-01T11:17:15.627Z,225.00
2018-03-01T11:18:21.624Z,225.00
2018-03-01T11:19:27.682Z,225.00
2018-03-01T11:20:33.248Z,230.63
2018-03-01T11:21:39.772Z,236.25
2018-03-01T11:22:45.827Z,236.25
2018-03-01T11:23:51.386Z,241.88
2018-03-01T11:24:57.930Z,241.88
2018-03-01T11:26:03.514Z,236.25
2018-03-01T11:27:09.548Z,236.25
2018-03-01T11:28:15.620Z,236.25
2018-03-01T11:29:21.646Z,236.25
2018-03-01T11:30:28.225Z,236.25
2018-03-01T11:31:34.272Z,236.25
2018-03-01T11:32:39.817Z,241.88
2018-03-01T11:33:45.944Z,241.88
2018-03-01T11:34:51.950Z,241.88
2018-03-01T11:35:58.034Z,241.88
2018-03-01T11:37:04.051Z,253.13
2018-03-01T11:38:10.611Z,258.75
2018-03-01T11:39:16.689Z,264.38
2018-03-01T11:40:22.773Z,270.00
2018-03-01T11:41:28.349Z,275.63
2018-03-01T11:42:34.437Z,281.25
2018-03-01T11:43:41.067Z,286.88
2018-03-01T11:44:46.724Z,298.13
2018-03-01T11:45:52.913Z,343.13
2018-03-01T11:46:59.024Z,388.13
2018-03-01T11:48:05.216Z,399.38
2018-03-01T11:49:11.440Z,399.38
2018-03-01T11:50:17.644Z,393.75
2018-03-01T11:51:23.936Z,388.13
2018-03-01T11:52:30.575Z,382.50
2018-03-01T11:53:36.320Z,388.13
2018-03-01T11:54:43.061Z,393.75
2018-03-01T11:55:49.362Z,405.00
2018-03-01T11:56:55.107Z,410.63
2018-03-01T11:58:01.922Z,416.25
2018-03-01T11:59:07.636Z,399.38
2018-03-01T12:00:14.442Z,405.00
2018-03-01T12:01:20.745Z,405.00
2018-03-01T12:02:27.011Z,399.38
2018-03-01T12:03:32.831Z,405.00
2018-03-01T12:04:39.141Z,410.63
2018-03-01T12:05:45.967Z,405.00
2018-03-01T12:06:52.275Z,405.00
2018-03-01T12:07:58.115Z,405.00
2018-03-01T12:09:04.431Z,410.63
2018-03-01T12:10:10.772Z,410.63
2018-03-01T12:11:17.120Z,421.88
2018-03-01T12:12:23.437Z,410.63
2018-03-01T12:13:29.782Z,421.88
2018-03-01T12:14:36.126Z,427.50
2018-03-01T12:15:42.495Z,427.50
2018-03-01T12:16:48.836Z,433.13
2018-03-01T12:17:55.198Z,438.75
2018-03-01T12:19:01.760Z,410.63
2018-03-01T12:20:07.938Z,421.88
2018-03-01T12:21:14.330Z,416.25
2018-03-01T12:22:20.691Z,427.50
2018-03-01T12:23:27.067Z,427.50
2018-03-01T12:24:33.957Z,427.50
2018-03-01T12:25:40.362Z,421.88
2018-03-01T12:26:46.244Z,421.88
2018-03-01T12:27:52.640Z,421.88
2018-03-01T12:28:59.052Z,410.63
2018-03-01T12:30:05.453Z,405.00
2018-03-01T12:31:11.949Z,410.63
2018-03-01T12:32:18.243Z,405.00
2018-03-01T12:33:24.652Z,410.63
2018-03-01T12:34:31.049Z,416.25
2018-03-01T12:35:37.470Z,410.63
2018-03-01T12:36:43.930Z,405.00
2018-03-01T12:37:50.256Z,405.00
2018-03-01T12:38:57.157Z,399.38
2018-03-01T12:40:03.063Z,399.38
2018-03-01T12:41:09.476Z,410.63
2018-03-01T12:42:15.931Z,421.88
2018-03-01T12:43:22.244Z,405.00
2018-03-01T12:44:28.642Z,405.00
2018-03-01T12:45:35.561Z,405.00
2018-03-01T12:46:41.445Z,405.00
2018-03-01T12:47:47.929Z,399.38
2018-03-01T12:48:54.225Z,393.75
2018-03-01T12:50:00.621Z,388.13
2018-03-01T12:51:07.029Z,393.75
2018-03-01T12:52:13.387Z,388.13
2018-03-01T12:53:19.785Z,388.13
2018-03-01T12:54:26.159Z,399.38
2018-03-01T12:55:32.556Z,399.38
2018-03-01T12:56:38.916Z,410.63
2018-03-01T12:57:45.315Z,405.00
2018-03-01T12:58:51.695Z,410.63
2018-03-01T12:59:58.086Z,399.38
2018-03-01T13:01:04.998Z,399.38
2018-03-01T13:02:10.865Z,393.75
2018-03-01T13:03:17.763Z,399.38
2018-03-01T13:04:24.165Z,405.00
2018-03-01T13:05:30.566Z,393.75
2018-03-01T13:06:36.460Z,410.63
2018-03-01T13:07:42.864Z,421.88
2018-03-01T13:08:49.269Z,433.13
2018-03-01T13:09:55.655Z,427.50
2018-03-01T13:11:02.098Z,421.88
2018-03-01T13:12:08.478Z,427.50
2018-03-01T13:13:14.897Z,410.63
2018-03-01T13:14:21.296Z,416.25
2018-03-01T13:15:27.711Z,427.50
2018-03-01T13:16:34.142Z,421.88
2018-03-01T13:17:41.036Z,433.13
2018-03-01T13:18:46.932Z,444.38
2018-03-01T13:19:53.365Z,444.38
2018-03-01T13:20:59.795Z,455.63
2018-03-01T13:22:06.178Z,438.75
2018-03-01T13:23:12.591Z,399.38
2018-03-01T13:24:19.502Z,388.13
2018-03-01T13:25:25.428Z,371.25
2018-03-01T13:26:31.948Z,388.13
2018-03-01T13:27:38.243Z,388.13
2018-03-01T13:28:45.138Z,405.00
2018-03-01T13:29:51.024Z,410.63
2018-03-01T13:30:57.502Z,399.38
2018-03-01T13:32:03.804Z,421.88
2018-03-01T13:33:10.194Z,438.75
2018-03-01T13:34:16.598Z,433.13
2018-03-01T13:35:22.997Z,427.50
2018-03-01T13:36:29.401Z,421.88
2018-03-01T13:37:36.268Z,427.50
2018-03-01T13:38:42.652Z,427.50
2018-03-01T13:39:48.618Z,421.88
2018-03-01T13:40:54.989Z,405.00
2018-03-01T13:42:01.325Z,388.13
2018-03-01T13:43:08.211Z,399.38
2018-03-01T13:44:14.109Z,410.63
2018-03-01T13:45:20.987Z,393.75
2018-03-01T13:46:26.912Z,393.75
2018-03-01T13:47:33.269Z,388.13
2018-03-01T13:48:40.152Z,382.50
2018-03-01T13:49:46.052Z,388.13
2018-03-01T13:50:52.916Z,388.13
2018-03-01T13:51:58.824Z,399.38
2018-03-01T13:53:05.185Z,399.38
2018-03-01T13:54:11.582Z,405.00
2018-03-01T13:55:17.955Z,399.38
2018-03-01T13:56:24.860Z,388.13
2018-03-01T13:57:30.804Z,376.88
2018-03-01T13:58:37.074Z,360.00
2018-03-01T13:59:43.462Z,354.38
2018-03-01T14:00:50.301Z,348.75
2018-03-01T14:01:56.705Z,354.38
2018-03-01T14:03:02.530Z,360.00
2018-03-01T14:04:08.881Z,365.63
2018-03-01T14:05:15.225Z,365.63
2018-03-01T14:06:21.590Z,376.88
2018-03-01T14:07:27.912Z,382.50
2018-03-01T14:08:34.237Z,393.75
2018-03-01T14:09:40.559Z,405.00